sensor_id;sensor_type;location;lat;lon;timestamp;P1;durP1;ratioP1;P2;durP2;ratioP2
15526;SDS011;7865;50.918;4.510;2023-12-07T00:02:00;62.40;;;22.27;;
15526;SDS011;7865;50.918;4.510;2023-12-07T00:07:02;63.07;;;22.80;;
15526;SDS011;7865;50.918;4.510;2023-12-07T00:12:03;62.57;;;22.80;;
15526;SDS011;7865;50.918;4.510;2023-12-07T00:17:04;63.67;;;21.97;;
15526;SDS011;7865;50.918;4.510;2023-12-07T00:22:06;63.57;;;21.13;;
15526;SDS011;7865;50.918;4.510;2023-12-07T00:27:07;56.03;;;20.80;;
15526;SDS011;7865;50.918;4.510;2023-12-07T00:32:08;60.40;;;20.80;;
15526;SDS011;7865;50.918;4.510;2023-12-07T00:37:09;48.53;;;19.80;;
15526;SDS011;7865;50.918;4.510;2023-12-07T00:42:10;60.10;;;23.00;;
15526;SDS011;7865;50.918;4.510;2023-12-07T00:47:11;61.70;;;20.43;;
15526;SDS011;7865;50.918;4.510;2023-12-07T00:52:13;51.53;;;20.57;;
15526;SDS011;7865;50.918;4.510;2023-12-07T00:57:14;61.17;;;20.63;;
15526;SDS011;7865;50.918;4.510;2023-12-07T01:02:15;53.33;;;20.37;;
15526;SDS011;7865;50.918;4.510;2023-12-07T01:07:16;54.27;;;22.73;;
15526;SDS011;7865;50.918;4.510;2023-12-07T01:12:18;58.57;;;21.47;;
15526;SDS011;7865;50.918;4.510;2023-12-07T01:17:19;69.70;;;24.37;;
15526;SDS011;7865;50.918;4.510;2023-12-07T01:22:20;50.57;;;21.50;;
15526;SDS011;7865;50.918;4.510;2023-12-07T01:27:21;52.67;;;20.13;;
15526;SDS011;7865;50.918;4.510;2023-12-07T01:32:23;49.93;;;19.03;;
15526;SDS011;7865;50.918;4.510;2023-12-07T01:37:25;52.27;;;19.67;;
15526;SDS011;7865;50.918;4.510;2023-12-07T01:42:26;55.67;;;19.30;;
15526;SDS011;7865;50.918;4.510;2023-12-07T01:47:27;48.97;;;19.80;;
15526;SDS011;7865;50.918;4.510;2023-12-07T01:52:28;54.90;;;20.27;;
15526;SDS011;7865;50.918;4.510;2023-12-07T01:57:30;57.77;;;22.40;;
15526;SDS011;7865;50.918;4.510;2023-12-07T02:02:31;53.10;;;21.30;;
15526;SDS011;7865;50.918;4.510;2023-12-07T02:07:35;55.03;;;20.77;;
15526;SDS011;7865;50.918;4.510;2023-12-07T02:12:36;56.83;;;20.57;;
15526;SDS011;7865;50.918;4.510;2023-12-07T02:23:03;44.00;;;18.67;;
15526;SDS011;7865;50.918;4.510;2023-12-07T02:28:06;46.63;;;21.33;;
15526;SDS011;7865;50.918;4.510;2023-12-07T02:33:08;44.97;;;19.53;;
15526;SDS011;7865;50.918;4.510;2023-12-07T02:38:09;50.30;;;21.07;;
15526;SDS011;7865;50.918;4.510;2023-12-07T02:43:11;46.43;;;22.47;;
15526;SDS011;7865;50.918;4.510;2023-12-07T02:48:13;45.57;;;19.87;;
15526;SDS011;7865;50.918;4.510;2023-12-07T02:53:14;37.93;;;18.83;;
15526;SDS011;7865;50.918;4.510;2023-12-07T02:58:15;45.23;;;20.20;;
15526;SDS011;7865;50.918;4.510;2023-12-07T03:03:16;48.67;;;20.87;;
15526;SDS011;7865;50.918;4.510;2023-12-07T03:08:17;50.30;;;21.67;;
15526;SDS011;7865;50.918;4.510;2023-12-07T03:13:19;43.37;;;20.03;;
15526;SDS011;7865;50.918;4.510;2023-12-07T03:18:20;43.87;;;20.37;;
15526;SDS011;7865;50.918;4.510;2023-12-07T03:23:21;49.33;;;22.23;;
15526;SDS011;7865;50.918;4.510;2023-12-07T03:28:22;47.57;;;20.30;;
15526;SDS011;7865;50.918;4.510;2023-12-07T03:33:24;45.40;;;21.57;;
15526;SDS011;7865;50.918;4.510;2023-12-07T03:38:25;49.90;;;22.23;;
15526;SDS011;7865;50.918;4.510;2023-12-07T03:43:26;59.47;;;23.33;;
15526;SDS011;7865;50.918;4.510;2023-12-07T03:48:27;47.93;;;21.73;;
15526;SDS011;7865;50.918;4.510;2023-12-07T03:53:28;52.97;;;21.80;;
15526;SDS011;7865;50.918;4.510;2023-12-07T03:58:29;46.40;;;20.47;;
15526;SDS011;7865;50.918;4.510;2023-12-07T04:03:31;47.10;;;21.63;;
15526;SDS011;7865;50.918;4.510;2023-12-07T04:08:32;35.13;;;18.03;;
15526;SDS011;7865;50.918;4.510;2023-12-07T04:13:34;41.47;;;19.83;;
15526;SDS011;7865;50.918;4.510;2023-12-07T04:18:35;41.43;;;17.53;;
15526;SDS011;7865;50.918;4.510;2023-12-07T04:23:36;38.77;;;18.70;;
15526;SDS011;7865;50.918;4.510;2023-12-07T04:28:38;39.33;;;18.60;;
15526;SDS011;7865;50.918;4.510;2023-12-07T04:33:39;35.40;;;19.17;;
15526;SDS011;7865;50.918;4.510;2023-12-07T04:38:40;33.97;;;18.97;;
15526;SDS011;7865;50.918;4.510;2023-12-07T04:43:41;36.00;;;17.90;;
15526;SDS011;7865;50.918;4.510;2023-12-07T04:48:43;40.97;;;20.40;;
15526;SDS011;7865;50.918;4.510;2023-12-07T04:53:44;34.77;;;19.83;;
15526;SDS011;7865;50.918;4.510;2023-12-07T04:58:45;33.90;;;18.67;;
15526;SDS011;7865;50.918;4.510;2023-12-07T05:03:46;35.67;;;19.60;;
15526;SDS011;7865;50.918;4.510;2023-12-07T05:08:48;36.37;;;17.67;;
15526;SDS011;7865;50.918;4.510;2023-12-07T05:13:49;32.83;;;17.37;;
15526;SDS011;7865;50.918;4.510;2023-12-07T05:18:50;35.87;;;18.83;;
15526;SDS011;7865;50.918;4.510;2023-12-07T05:23:52;32.27;;;16.33;;
15526;SDS011;7865;50.918;4.510;2023-12-07T05:28:53;35.03;;;16.53;;
15526;SDS011;7865;50.918;4.510;2023-12-07T05:33:55;30.40;;;17.43;;
15526;SDS011;7865;50.918;4.510;2023-12-07T05:38:56;33.37;;;18.80;;
15526;SDS011;7865;50.918;4.510;2023-12-07T05:43:57;33.67;;;18.07;;
15526;SDS011;7865;50.918;4.510;2023-12-07T05:48:59;30.40;;;15.70;;
15526;SDS011;7865;50.918;4.510;2023-12-07T05:54:01;30.93;;;16.23;;
15526;SDS011;7865;50.918;4.510;2023-12-07T05:59:02;31.27;;;16.83;;
15526;SDS011;7865;50.918;4.510;2023-12-07T06:04:03;29.53;;;18.23;;
15526;SDS011;7865;50.918;4.510;2023-12-07T06:09:04;31.23;;;17.77;;
15526;SDS011;7865;50.918;4.510;2023-12-07T06:14:08;28.33;;;16.70;;
15526;SDS011;7865;50.918;4.510;2023-12-07T06:19:10;34.50;;;17.33;;
15526;SDS011;7865;50.918;4.510;2023-12-07T06:24:11;31.70;;;16.97;;
15526;SDS011;7865;50.918;4.510;2023-12-07T06:29:12;27.43;;;16.33;;
15526;SDS011;7865;50.918;4.510;2023-12-07T06:34:13;27.90;;;16.57;;
15526;SDS011;7865;50.918;4.510;2023-12-07T06:39:15;27.77;;;16.30;;
15526;SDS011;7865;50.918;4.510;2023-12-07T06:44:16;28.13;;;17.50;;
15526;SDS011;7865;50.918;4.510;2023-12-07T06:49:17;32.30;;;17.10;;
15526;SDS011;7865;50.918;4.510;2023-12-07T06:54:18;27.50;;;16.53;;
15526;SDS011;7865;50.918;4.510;2023-12-07T06:59:19;29.00;;;16.63;;
15526;SDS011;7865;50.918;4.510;2023-12-07T07:04:21;32.70;;;18.43;;
15526;SDS011;7865;50.918;4.510;2023-12-07T07:09:22;26.67;;;16.20;;
15526;SDS011;7865;50.918;4.510;2023-12-07T07:14:23;33.50;;;17.07;;
15526;SDS011;7865;50.918;4.510;2023-12-07T07:19:24;34.80;;;18.20;;
15526;SDS011;7865;50.918;4.510;2023-12-07T07:24:25;33.63;;;17.20;;
15526;SDS011;7865;50.918;4.510;2023-12-07T07:29:26;33.77;;;18.00;;
15526;SDS011;7865;50.918;4.510;2023-12-07T07:34:31;29.30;;;18.20;;
15526;SDS011;7865;50.918;4.510;2023-12-07T07:39:32;34.70;;;17.30;;
15526;SDS011;7865;50.918;4.510;2023-12-07T07:44:33;35.17;;;17.87;;
15526;SDS011;7865;50.918;4.510;2023-12-07T07:49:35;34.37;;;19.47;;
15526;SDS011;7865;50.918;4.510;2023-12-07T07:54:36;27.20;;;14.70;;
15526;SDS011;7865;50.918;4.510;2023-12-07T07:59:37;31.30;;;17.67;;
15526;SDS011;7865;50.918;4.510;2023-12-07T08:04:38;28.77;;;15.87;;
15526;SDS011;7865;50.918;4.510;2023-12-07T08:09:40;28.40;;;16.17;;
15526;SDS011;7865;50.918;4.510;2023-12-07T08:14:41;36.90;;;17.43;;
15526;SDS011;7865;50.918;4.510;2023-12-07T08:19:44;32.10;;;16.30;;
15526;SDS011;7865;50.918;4.510;2023-12-07T08:24:45;33.53;;;16.77;;
15526;SDS011;7865;50.918;4.510;2023-12-07T08:29:55;33.37;;;17.73;;
15526;SDS011;7865;50.918;4.510;2023-12-07T08:34:56;30.93;;;17.33;;
15526;SDS011;7865;50.918;4.510;2023-12-07T08:39:58;30.93;;;16.17;;
15526;SDS011;7865;50.918;4.510;2023-12-07T08:44:59;33.13;;;16.87;;
15526;SDS011;7865;50.918;4.510;2023-12-07T08:50:00;31.23;;;17.43;;
15526;SDS011;7865;50.918;4.510;2023-12-07T08:55:02;26.50;;;15.67;;
15526;SDS011;7865;50.918;4.510;2023-12-07T09:00:04;24.13;;;15.10;;
15526;SDS011;7865;50.918;4.510;2023-12-07T09:05:06;28.73;;;14.87;;
15526;SDS011;7865;50.918;4.510;2023-12-07T09:10:08;26.60;;;15.63;;
15526;SDS011;7865;50.918;4.510;2023-12-07T09:15:09;24.33;;;14.47;;
15526;SDS011;7865;50.918;4.510;2023-12-07T09:20:11;23.87;;;15.90;;
15526;SDS011;7865;50.918;4.510;2023-12-07T09:25:15;26.93;;;14.90;;
15526;SDS011;7865;50.918;4.510;2023-12-07T09:30:18;27.23;;;15.40;;
15526;SDS011;7865;50.918;4.510;2023-12-07T09:35:19;22.33;;;15.17;;
15526;SDS011;7865;50.918;4.510;2023-12-07T09:40:22;29.40;;;13.90;;
15526;SDS011;7865;50.918;4.510;2023-12-07T09:45:25;24.23;;;14.33;;
15526;SDS011;7865;50.918;4.510;2023-12-07T09:50:29;26.57;;;15.13;;
15526;SDS011;7865;50.918;4.510;2023-12-07T09:55:30;24.03;;;15.53;;
15526;SDS011;7865;50.918;4.510;2023-12-07T10:00:32;23.80;;;15.20;;
15526;SDS011;7865;50.918;4.510;2023-12-07T10:05:34;30.33;;;17.50;;
15526;SDS011;7865;50.918;4.510;2023-12-07T10:10:35;23.20;;;16.00;;
15526;SDS011;7865;50.918;4.510;2023-12-07T10:15:37;21.07;;;13.90;;
15526;SDS011;7865;50.918;4.510;2023-12-07T10:20:39;17.07;;;11.53;;
15526;SDS011;7865;50.918;4.510;2023-12-07T10:25:46;21.30;;;11.77;;
15526;SDS011;7865;50.918;4.510;2023-12-07T10:30:47;14.40;;;10.17;;
15526;SDS011;7865;50.918;4.510;2023-12-07T10:35:48;12.73;;;9.80;;
15526;SDS011;7865;50.918;4.510;2023-12-07T10:40:51;15.20;;;9.23;;
15526;SDS011;7865;50.918;4.510;2023-12-07T10:46:10;10.53;;;7.83;;
15526;SDS011;7865;50.918;4.510;2023-12-07T10:51:20;13.17;;;8.40;;
15526;SDS011;7865;50.918;4.510;2023-12-07T10:56:29;15.23;;;8.57;;
15526;SDS011;7865;50.918;4.510;2023-12-07T11:01:38;17.97;;;8.27;;
15526;SDS011;7865;50.918;4.510;2023-12-07T11:06:41;12.00;;;8.10;;
15526;SDS011;7865;50.918;4.510;2023-12-07T11:11:52;15.03;;;9.00;;
15526;SDS011;7865;50.918;4.510;2023-12-07T11:17:08;9.87;;;8.00;;
15526;SDS011;7865;50.918;4.510;2023-12-07T11:22:10;15.43;;;7.90;;
15526;SDS011;7865;50.918;4.510;2023-12-07T11:27:12;12.33;;;8.50;;
15526;SDS011;7865;50.918;4.510;2023-12-07T11:32:14;14.00;;;8.03;;
15526;SDS011;7865;50.918;4.510;2023-12-07T11:37:27;15.03;;;7.80;;
15526;SDS011;7865;50.918;4.510;2023-12-07T11:43:18;17.67;;;9.07;;
15526;SDS011;7865;50.918;4.510;2023-12-07T11:48:35;13.43;;;8.00;;
15526;SDS011;7865;50.918;4.510;2023-12-07T11:53:36;12.93;;;7.50;;
15526;SDS011;7865;50.918;4.510;2023-12-07T11:58:38;13.03;;;7.50;;
15526;SDS011;7865;50.918;4.510;2023-12-07T12:03:42;11.53;;;7.57;;
15526;SDS011;7865;50.918;4.510;2023-12-07T12:08:43;10.80;;;7.90;;
15526;SDS011;7865;50.918;4.510;2023-12-07T12:13:45;13.00;;;7.57;;
15526;SDS011;7865;50.918;4.510;2023-12-07T12:18:48;12.00;;;7.60;;
15526;SDS011;7865;50.918;4.510;2023-12-07T12:23:50;10.87;;;7.60;;
15526;SDS011;7865;50.918;4.510;2023-12-07T12:28:52;10.67;;;7.93;;
15526;SDS011;7865;50.918;4.510;2023-12-07T12:33:53;11.80;;;8.03;;
15526;SDS011;7865;50.918;4.510;2023-12-07T12:38:56;12.17;;;7.43;;
15526;SDS011;7865;50.918;4.510;2023-12-07T12:43:59;11.10;;;8.40;;
15526;SDS011;7865;50.918;4.510;2023-12-07T12:49:01;11.77;;;7.40;;
15526;SDS011;7865;50.918;4.510;2023-12-07T12:54:03;12.73;;;7.33;;
15526;SDS011;7865;50.918;4.510;2023-12-07T12:59:04;10.83;;;7.37;;
15526;SDS011;7865;50.918;4.510;2023-12-07T13:04:08;9.57;;;7.00;;
15526;SDS011;7865;50.918;4.510;2023-12-07T13:09:10;10.97;;;6.93;;
15526;SDS011;7865;50.918;4.510;2023-12-07T13:14:11;8.23;;;5.83;;
15526;SDS011;7865;50.918;4.510;2023-12-07T13:19:12;12.47;;;6.90;;
15526;SDS011;7865;50.918;4.510;2023-12-07T13:24:14;13.27;;;6.47;;
15526;SDS011;7865;50.918;4.510;2023-12-07T13:29:15;10.40;;;6.80;;
15526;SDS011;7865;50.918;4.510;2023-12-07T13:34:29;10.70;;;7.27;;
15526;SDS011;7865;50.918;4.510;2023-12-07T13:39:30;11.63;;;6.33;;
15526;SDS011;7865;50.918;4.510;2023-12-07T13:44:32;10.03;;;6.73;;
15526;SDS011;7865;50.918;4.510;2023-12-07T13:49:34;7.73;;;5.97;;
15526;SDS011;7865;50.918;4.510;2023-12-07T13:54:36;10.13;;;6.70;;
15526;SDS011;7865;50.918;4.510;2023-12-07T13:59:54;8.13;;;5.83;;
15526;SDS011;7865;50.918;4.510;2023-12-07T14:04:55;8.30;;;6.00;;
15526;SDS011;7865;50.918;4.510;2023-12-07T14:09:57;8.70;;;6.07;;
15526;SDS011;7865;50.918;4.510;2023-12-07T14:14:59;7.27;;;5.73;;
15526;SDS011;7865;50.918;4.510;2023-12-07T14:20:01;8.40;;;6.00;;
15526;SDS011;7865;50.918;4.510;2023-12-07T14:25:24;10.00;;;6.47;;
15526;SDS011;7865;50.918;4.510;2023-12-07T14:30:25;9.47;;;6.50;;
15526;SDS011;7865;50.918;4.510;2023-12-07T14:35:27;12.97;;;7.13;;
15526;SDS011;7865;50.918;4.510;2023-12-07T14:40:28;12.20;;;7.27;;
15526;SDS011;7865;50.918;4.510;2023-12-07T14:45:29;13.90;;;7.87;;
15526;SDS011;7865;50.918;4.510;2023-12-07T14:50:30;14.50;;;8.30;;
15526;SDS011;7865;50.918;4.510;2023-12-07T14:55:32;13.67;;;8.57;;
15526;SDS011;7865;50.918;4.510;2023-12-07T15:00:33;11.63;;;8.10;;
15526;SDS011;7865;50.918;4.510;2023-12-07T15:05:34;11.70;;;8.40;;
15526;SDS011;7865;50.918;4.510;2023-12-07T15:10:35;8.73;;;6.80;;
15526;SDS011;7865;50.918;4.510;2023-12-07T15:15:36;13.03;;;7.53;;
15526;SDS011;7865;50.918;4.510;2023-12-07T15:20:38;9.97;;;7.17;;
15526;SDS011;7865;50.918;4.510;2023-12-07T15:25:39;11.83;;;8.10;;
15526;SDS011;7865;50.918;4.510;2023-12-07T15:30:40;10.03;;;7.87;;
15526;SDS011;7865;50.918;4.510;2023-12-07T15:35:41;9.43;;;7.00;;
15526;SDS011;7865;50.918;4.510;2023-12-07T15:40:43;9.97;;;7.03;;
15526;SDS011;7865;50.918;4.510;2023-12-07T15:45:44;12.80;;;7.50;;
15526;SDS011;7865;50.918;4.510;2023-12-07T15:50:48;9.97;;;7.07;;
15526;SDS011;7865;50.918;4.510;2023-12-07T15:55:50;10.47;;;6.73;;
15526;SDS011;7865;50.918;4.510;2023-12-07T16:00:51;9.90;;;6.20;;
15526;SDS011;7865;50.918;4.510;2023-12-07T16:05:52;8.63;;;6.37;;
15526;SDS011;7865;50.918;4.510;2023-12-07T16:10:54;11.30;;;6.03;;
15526;SDS011;7865;50.918;4.510;2023-12-07T16:15:55;9.27;;;7.10;;
15526;SDS011;7865;50.918;4.510;2023-12-07T16:20:57;10.13;;;6.40;;
15526;SDS011;7865;50.918;4.510;2023-12-07T16:25:58;11.70;;;7.30;;
15526;SDS011;7865;50.918;4.510;2023-12-07T16:30:59;11.67;;;7.30;;
15526;SDS011;7865;50.918;4.510;2023-12-07T16:36:01;11.90;;;7.07;;
15526;SDS011;7865;50.918;4.510;2023-12-07T16:41:10;13.40;;;6.53;;
15526;SDS011;7865;50.918;4.510;2023-12-07T16:46:12;8.43;;;6.30;;
15526;SDS011;7865;50.918;4.510;2023-12-07T16:51:13;12.30;;;7.60;;
15526;SDS011;7865;50.918;4.510;2023-12-07T16:56:15;11.00;;;7.13;;
15526;SDS011;7865;50.918;4.510;2023-12-07T17:01:16;10.37;;;7.20;;
15526;SDS011;7865;50.918;4.510;2023-12-07T17:06:18;11.40;;;7.00;;
15526;SDS011;7865;50.918;4.510;2023-12-07T17:11:20;11.30;;;7.40;;
15526;SDS011;7865;50.918;4.510;2023-12-07T17:16:21;11.13;;;6.53;;
15526;SDS011;7865;50.918;4.510;2023-12-07T17:21:23;11.80;;;7.93;;
15526;SDS011;7865;50.918;4.510;2023-12-07T17:26:25;13.73;;;6.83;;
15526;SDS011;7865;50.918;4.510;2023-12-07T17:31:30;11.47;;;7.37;;
15526;SDS011;7865;50.918;4.510;2023-12-07T17:36:31;15.87;;;7.57;;
15526;SDS011;7865;50.918;4.510;2023-12-07T17:41:32;13.43;;;7.53;;
15526;SDS011;7865;50.918;4.510;2023-12-07T17:46:33;9.53;;;7.13;;
15526;SDS011;7865;50.918;4.510;2023-12-07T17:51:34;13.77;;;7.83;;
15526;SDS011;7865;50.918;4.510;2023-12-07T17:56:38;10.53;;;7.13;;
15526;SDS011;7865;50.918;4.510;2023-12-07T18:01:40;11.27;;;7.53;;
15526;SDS011;7865;50.918;4.510;2023-12-07T18:06:42;11.37;;;6.90;;
15526;SDS011;7865;50.918;4.510;2023-12-07T18:11:43;12.60;;;7.60;;
15526;SDS011;7865;50.918;4.510;2023-12-07T18:16:45;16.00;;;7.63;;
15526;SDS011;7865;50.918;4.510;2023-12-07T18:21:47;15.20;;;7.67;;
15526;SDS011;7865;50.918;4.510;2023-12-07T18:26:48;13.43;;;7.10;;
15526;SDS011;7865;50.918;4.510;2023-12-07T18:31:50;11.93;;;7.30;;
15526;SDS011;7865;50.918;4.510;2023-12-07T18:36:52;11.57;;;7.00;;
15526;SDS011;7865;50.918;4.510;2023-12-07T18:41:53;21.43;;;12.87;;
15526;SDS011;7865;50.918;4.510;2023-12-07T18:46:54;18.60;;;11.87;;
15526;SDS011;7865;50.918;4.510;2023-12-07T18:51:55;11.73;;;8.23;;
15526;SDS011;7865;50.918;4.510;2023-12-07T18:56:57;13.37;;;6.77;;
15526;SDS011;7865;50.918;4.510;2023-12-07T19:01:58;11.00;;;6.07;;
15526;SDS011;7865;50.918;4.510;2023-12-07T19:06:59;9.47;;;6.13;;
15526;SDS011;7865;50.918;4.510;2023-12-07T19:12:03;8.77;;;5.43;;
15526;SDS011;7865;50.918;4.510;2023-12-07T19:17:04;11.40;;;5.97;;
15526;SDS011;7865;50.918;4.510;2023-12-07T19:22:05;10.50;;;5.77;;
15526;SDS011;7865;50.918;4.510;2023-12-07T19:27:07;7.43;;;5.83;;
15526;SDS011;7865;50.918;4.510;2023-12-07T19:32:08;7.43;;;4.83;;
15526;SDS011;7865;50.918;4.510;2023-12-07T19:37:09;7.07;;;4.67;;
15526;SDS011;7865;50.918;4.510;2023-12-07T19:42:10;6.07;;;4.87;;
15526;SDS011;7865;50.918;4.510;2023-12-07T19:47:12;7.37;;;4.77;;
15526;SDS011;7865;50.918;4.510;2023-12-07T19:52:13;10.17;;;5.37;;
15526;SDS011;7865;50.918;4.510;2023-12-07T19:57:14;8.50;;;5.63;;
15526;SDS011;7865;50.918;4.510;2023-12-07T20:02:16;7.03;;;4.57;;
15526;SDS011;7865;50.918;4.510;2023-12-07T20:07:20;6.57;;;4.63;;
15526;SDS011;7865;50.918;4.510;2023-12-07T20:12:21;6.37;;;5.13;;
15526;SDS011;7865;50.918;4.510;2023-12-07T20:17:22;8.67;;;5.47;;
15526;SDS011;7865;50.918;4.510;2023-12-07T20:22:25;7.60;;;5.27;;
15526;SDS011;7865;50.918;4.510;2023-12-07T20:27:26;8.27;;;4.97;;
15526;SDS011;7865;50.918;4.510;2023-12-07T20:32:28;7.70;;;5.13;;
15526;SDS011;7865;50.918;4.510;2023-12-07T20:37:30;8.53;;;5.63;;
15526;SDS011;7865;50.918;4.510;2023-12-07T20:42:32;7.03;;;5.30;;
15526;SDS011;7865;50.918;4.510;2023-12-07T20:47:34;8.00;;;6.00;;
15526;SDS011;7865;50.918;4.510;2023-12-07T20:52:35;8.50;;;5.57;;
15526;SDS011;7865;50.918;4.510;2023-12-07T20:57:36;8.53;;;5.10;;
15526;SDS011;7865;50.918;4.510;2023-12-07T21:02:37;7.63;;;5.30;;
15526;SDS011;7865;50.918;4.510;2023-12-07T21:07:39;9.43;;;6.00;;
15526;SDS011;7865;50.918;4.510;2023-12-07T21:12:40;7.50;;;5.20;;
15526;SDS011;7865;50.918;4.510;2023-12-07T21:17:41;6.23;;;4.80;;
15526;SDS011;7865;50.918;4.510;2023-12-07T21:22:42;8.80;;;4.97;;
15526;SDS011;7865;50.918;4.510;2023-12-07T21:27:44;6.70;;;5.03;;
15526;SDS011;7865;50.918;4.510;2023-12-07T21:32:45;9.63;;;5.27;;
15526;SDS011;7865;50.918;4.510;2023-12-07T21:37:46;6.90;;;5.87;;
15526;SDS011;7865;50.918;4.510;2023-12-07T21:42:47;8.03;;;5.37;;
15526;SDS011;7865;50.918;4.510;2023-12-07T21:47:49;8.13;;;4.90;;
15526;SDS011;7865;50.918;4.510;2023-12-07T21:52:51;10.30;;;5.80;;
15526;SDS011;7865;50.918;4.510;2023-12-07T21:57:52;7.43;;;5.57;;
15526;SDS011;7865;50.918;4.510;2023-12-07T22:02:53;6.57;;;5.00;;
15526;SDS011;7865;50.918;4.510;2023-12-07T22:07:55;7.43;;;5.10;;
15526;SDS011;7865;50.918;4.510;2023-12-07T22:12:56;6.40;;;5.10;;
15526;SDS011;7865;50.918;4.510;2023-12-07T22:17:58;7.40;;;5.10;;
15526;SDS011;7865;50.918;4.510;2023-12-07T22:23:00;8.03;;;5.13;;
15526;SDS011;7865;50.918;4.510;2023-12-07T22:28:01;8.17;;;4.63;;
15526;SDS011;7865;50.918;4.510;2023-12-07T22:33:03;7.10;;;4.80;;
15526;SDS011;7865;50.918;4.510;2023-12-07T22:38:04;6.93;;;5.67;;
15526;SDS011;7865;50.918;4.510;2023-12-07T22:43:05;5.87;;;4.73;;
15526;SDS011;7865;50.918;4.510;2023-12-07T22:48:07;6.73;;;5.03;;
15526;SDS011;7865;50.918;4.510;2023-12-07T22:53:08;6.93;;;4.93;;
15526;SDS011;7865;50.918;4.510;2023-12-07T22:58:09;8.23;;;5.13;;
15526;SDS011;7865;50.918;4.510;2023-12-07T23:03:11;7.00;;;5.03;;
15526;SDS011;7865;50.918;4.510;2023-12-07T23:08:12;8.93;;;5.30;;
15526;SDS011;7865;50.918;4.510;2023-12-07T23:13:13;6.23;;;4.63;;
15526;SDS011;7865;50.918;4.510;2023-12-07T23:18:14;8.10;;;5.43;;
15526;SDS011;7865;50.918;4.510;2023-12-07T23:23:16;6.03;;;4.43;;
15526;SDS011;7865;50.918;4.510;2023-12-07T23:28:17;8.60;;;5.07;;
15526;SDS011;7865;50.918;4.510;2023-12-07T23:33:19;7.97;;;4.73;;
15526;SDS011;7865;50.918;4.510;2023-12-07T23:38:20;5.93;;;4.57;;
15526;SDS011;7865;50.918;4.510;2023-12-07T23:43:21;5.87;;;3.80;;
15526;SDS011;7865;50.918;4.510;2023-12-07T23:48:23;5.93;;;4.13;;
15526;SDS011;7865;50.918;4.510;2023-12-07T23:53:24;5.17;;;4.00;;
15526;SDS011;7865;50.918;4.510;2023-12-07T23:58:25;5.40;;;4.07;;
